Remington, Wisconsin
Current Conditions -  °F | °C
As of 3:37 AM on Thursday 27 Nov 2014 (Local Time) from KISW Reporting Station
Overcast Overcast  
Wind Chill:   Ceiling: 7500
Heat Index: 17°   Visibility: NA
Dew Point: 11°   Wind: 9mph
Humidity: 77%   Direction: 340°NNW
Pressure: 30.29"   Gusts: NA
Location:  44.2909°N, 90.1894°W
Report Text: KISW 270937Z AUTO 34008KT SCT025 OVC075 M08/M12 A3029 RMK AO2 SNB08E22 P0000 T10831117 $
Loading
Personal Weather Stations






























Interactive Weather Map New forecast layout! Learn more

10-Day Weather Forecast

Advertisements
Track Severe Weather on mobile